createdAt,value
2022-12-23T00:01:34.470Z,82.55
2022-12-23T00:04:02.711Z,83.89
2022-12-23T00:06:31.012Z,83.86
2022-12-23T00:09:00.176Z,82.14
2022-12-23T00:11:29.339Z,81.01
2022-12-23T00:14:21.110Z,80.90
2022-12-23T00:16:51.276Z,80.77
2022-12-23T00:19:19.852Z,80.64
2022-12-23T00:21:48.832Z,81.11
2022-12-23T00:24:17.460Z,81.39
2022-12-23T00:26:45.815Z,80.87
2022-12-23T00:29:14.010Z,80.89
2022-12-23T00:31:42.485Z,82.14
2022-12-23T00:34:12.176Z,82.33
2022-12-23T00:36:41.055Z,82.32
2022-12-23T00:39:31.374Z,81.66
2022-12-23T00:42:18.172Z,82.91
2022-12-23T00:44:46.353Z,84.30
2022-12-23T00:47:34.755Z,84.62
2022-12-23T00:50:02.875Z,85.83
2022-12-23T00:52:31.258Z,84.35
2022-12-23T00:54:59.387Z,83.98
2022-12-23T00:57:27.506Z,84.32
2022-12-23T00:59:55.741Z,83.37
2022-12-23T01:02:42.921Z,84.90
2022-12-23T01:05:29.865Z,83.84
2022-12-23T01:07:58.098Z,83.15
2022-12-23T01:10:26.397Z,82.64
2022-12-23T01:12:54.965Z,82.77
2022-12-23T01:15:23.956Z,83.38
2022-12-23T01:17:51.988Z,84.64
2022-12-23T01:20:20.806Z,84.78
2022-12-23T01:22:48.944Z,84.02
2022-12-23T01:25:17.800Z,83.35
2022-12-23T01:27:45.965Z,82.94
2022-12-23T01:30:14.565Z,84.64
2022-12-23T01:32:42.746Z,84.26
2022-12-23T01:35:11.018Z,83.73
2022-12-23T01:37:39.297Z,82.49
2022-12-23T01:40:09.349Z,81.85
2022-12-23T01:42:43.723Z,85.62
2022-12-23T01:45:16.837Z,84.54
2022-12-23T01:47:51.565Z,84.49
2022-12-23T01:50:27.902Z,87.74
2022-12-23T01:53:22.414Z,85.95
2022-12-23T01:55:55.930Z,84.54
2022-12-23T01:58:39.394Z,82.32
2022-12-23T02:01:27.479Z,83.98
2022-12-23T02:03:59.722Z,83.55
2022-12-23T02:06:52.312Z,84.01
2022-12-23T02:09:30.515Z,85.04
2022-12-23T02:12:29.833Z,84.82
2022-12-23T02:15:50.805Z,87.29
2022-12-23T02:18:34.543Z,87.17
2022-12-23T02:21:24.785Z,87.06
2022-12-23T02:24:08.712Z,85.67
2022-12-23T02:27:09.963Z,83.91
2022-12-23T02:29:47.254Z,83.86
2022-12-23T02:32:27.789Z,83.52
2022-12-23T02:35:05.385Z,83.24
2022-12-23T02:37:40.708Z,84.94
2022-12-23T02:40:38.757Z,85.49
2022-12-23T02:43:44.716Z,86.63
2022-12-23T02:46:32.973Z,87.02
2022-12-23T02:49:04.701Z,90.32
2022-12-23T02:51:41.681Z,88.02
2022-12-23T02:54:16.033Z,88.56
2022-12-23T02:56:50.682Z,89.66
2022-12-23T02:59:23.350Z,86.26
2022-12-23T03:01:54.219Z,85.82
2022-12-23T03:04:22.544Z,86.29
2022-12-23T03:06:53.998Z,85.12
2022-12-23T03:09:43.254Z,86.17
2022-12-23T03:12:24.143Z,88.04
2022-12-23T03:15:11.045Z,88.73
2022-12-23T03:17:49.178Z,87.45
2022-12-23T03:20:29.249Z,86.30
2022-12-23T03:23:26.467Z,84.79
2022-12-23T03:26:03.714Z,84.12
2022-12-23T03:28:40.255Z,83.46
2022-12-23T03:31:13.379Z,83.37
2022-12-23T03:33:46.704Z,83.29
2022-12-23T03:36:22.480Z,83.80
2022-12-23T03:38:53.882Z,83.33
2022-12-23T03:41:29.121Z,83.50
2022-12-23T03:44:03.120Z,83.11
2022-12-23T03:46:52.839Z,85.59
2022-12-23T03:49:31.058Z,86.30
2022-12-23T03:52:04.492Z,85.58
2022-12-23T03:54:48.611Z,86.30
2022-12-23T03:57:20.394Z,85.44
2022-12-23T03:59:53.516Z,83.87
2022-12-23T04:03:10.905Z,83.74
2022-12-23T04:05:49.736Z,83.59
2022-12-23T04:08:30.176Z,85.08
2022-12-23T04:10:59.595Z,85.77
2022-12-23T04:13:29.103Z,86.95
2022-12-23T04:16:01.988Z,87.33
2022-12-23T04:18:30.468Z,87.18
2022-12-23T04:20:59.691Z,86.23
2022-12-23T04:23:27.843Z,84.97
2022-12-23T04:25:56.851Z,84.42
2022-12-23T04:28:25.161Z,84.31
2022-12-23T04:30:53.391Z,84.07
2022-12-23T04:33:21.652Z,84.45
2022-12-23T04:35:49.766Z,87.42
2022-12-23T04:38:17.923Z,88.51
2022-12-23T04:40:47.426Z,89.62
2022-12-23T04:43:15.630Z,90.03
2022-12-23T04:45:43.838Z,90.52
2022-12-23T04:48:12.073Z,91.88
2022-12-23T04:50:40.747Z,93.62
2022-12-23T04:53:09.225Z,92.49
2022-12-23T04:55:37.514Z,91.50
2022-12-23T04:58:05.796Z,92.35
2022-12-23T05:00:39.223Z,95.04
2022-12-23T05:03:08.335Z,93.99
2022-12-23T05:05:36.689Z,92.01
2022-12-23T05:08:06.020Z,90.97
2022-12-23T05:10:34.242Z,91.76
2022-12-23T05:13:02.526Z,92.73
2022-12-23T05:15:33.213Z,94.92
2022-12-23T05:18:01.744Z,94.81
2022-12-23T05:20:30.025Z,92.57
2022-12-23T05:22:58.401Z,91.64
2022-12-23T05:25:27.186Z,90.80
2022-12-23T05:27:55.707Z,90.69
2022-12-23T05:30:24.048Z,92.23
2022-12-23T05:32:56.835Z,94.21
2022-12-23T05:35:26.959Z,94.41
2022-12-23T05:37:55.075Z,94.77
2022-12-23T05:40:23.885Z,94.21
2022-12-23T05:42:56.773Z,93.55
2022-12-23T05:45:25.174Z,94.52
2022-12-23T05:47:53.548Z,93.65
2022-12-23T05:50:21.869Z,94.21
2022-12-23T05:52:50.756Z,95.18
2022-12-23T05:55:19.326Z,96.38
2022-12-23T05:57:47.837Z,94.86
2022-12-23T06:00:16.904Z,93.21
2022-12-23T06:02:51.765Z,92.85
2022-12-23T06:05:22.636Z,92.08
2022-12-23T06:07:50.853Z,93.70
2022-12-23T06:10:19.203Z,95.06
2022-12-23T06:12:47.626Z,95.89
2022-12-23T06:15:16.214Z,95.02
2022-12-23T06:17:45.239Z,93.53
2022-12-23T06:20:19.968Z,93.68
2022-12-23T06:22:49.435Z,94.11
2022-12-23T06:25:17.707Z,96.01
2022-12-23T06:27:47.034Z,95.81
2022-12-23T06:30:15.602Z,95.75
2022-12-23T06:32:43.916Z,95.44
2022-12-23T06:35:12.771Z,95.80
2022-12-23T06:37:40.923Z,96.16
2022-12-23T06:40:09.997Z,95.59
2022-12-23T06:42:38.523Z,95.74
2022-12-23T06:45:08.546Z,96.15
2022-12-23T06:47:37.567Z,96.97
2022-12-23T06:50:06.855Z,99.61
2022-12-23T06:52:35.091Z,100.00
2022-12-23T06:55:03.909Z,99.86
2022-12-23T06:57:32.085Z,98.15
2022-12-23T07:00:00.321Z,100.00
2022-12-23T07:02:28.590Z,100.00
2022-12-23T07:04:57.022Z,100.00
2022-12-23T07:07:25.224Z,100.00
2022-12-23T07:09:53.382Z,100.00
2022-12-23T07:12:21.696Z,99.55
2022-12-23T07:14:49.833Z,97.89
2022-12-23T07:17:18.111Z,97.61
2022-12-23T07:19:46.615Z,97.19
2022-12-23T07:22:14.973Z,96.57
2022-12-23T07:24:43.677Z,97.05
2022-12-23T07:27:13.728Z,96.44
2022-12-23T07:29:42.101Z,95.58
2022-12-23T07:32:10.342Z,96.33
2022-12-23T07:34:38.615Z,97.20
2022-12-23T07:37:06.997Z,97.25
2022-12-23T07:39:35.406Z,96.25
2022-12-23T07:42:33.834Z,95.71
2022-12-23T07:44:52.079Z,93.03
2022-12-23T07:47:20.587Z,92.75
2022-12-23T07:49:48.622Z,93.10
2022-12-23T07:52:18.477Z,92.71
2022-12-23T07:54:48.696Z,91.48
2022-12-23T07:57:18.204Z,90.44
2022-12-23T07:59:46.694Z,87.43
2022-12-23T08:02:15.086Z,88.14
2022-12-23T08:04:46.356Z,88.55
2022-12-23T08:07:15.014Z,88.04
2022-12-23T08:09:43.466Z,85.77
2022-12-23T08:12:11.500Z,83.87
2022-12-23T08:14:39.837Z,82.40
2022-12-23T08:17:08.535Z,83.01
2022-12-23T08:19:37.550Z,84.00
2022-12-23T08:22:06.519Z,82.70
2022-12-23T08:24:34.823Z,82.03
2022-12-23T08:27:02.979Z,84.70
2022-12-23T08:29:35.923Z,84.90
2022-12-23T08:32:04.897Z,85.21
2022-12-23T08:34:33.235Z,84.33
2022-12-23T08:37:02.440Z,84.20
2022-12-23T08:39:30.664Z,85.61
2022-12-23T08:41:59.201Z,85.71
2022-12-23T08:44:28.221Z,85.68
2022-12-23T08:46:56.501Z,85.41
2022-12-23T08:49:24.637Z,85.03
2022-12-23T08:51:52.845Z,84.71
2022-12-23T08:54:21.104Z,85.30
2022-12-23T08:56:49.681Z,84.19
2022-12-23T08:59:19.854Z,82.87
2022-12-23T09:01:48.857Z,82.29
2022-12-23T09:04:17.590Z,81.71
2022-12-23T09:06:45.877Z,81.01
2022-12-23T09:09:16.310Z,81.84
2022-12-23T09:11:44.726Z,81.15
2022-12-23T09:14:12.851Z,80.60
2022-12-23T09:16:41.331Z,80.59
2022-12-23T09:19:09.843Z,79.55
2022-12-23T09:21:38.095Z,79.86
2022-12-23T09:24:06.785Z,78.27
2022-12-23T09:26:34.869Z,77.89
2022-12-23T09:29:04.472Z,77.43
2022-12-23T09:31:37.083Z,77.65
2022-12-23T09:34:06.435Z,78.12
2022-12-23T09:36:34.744Z,78.70
2022-12-23T09:39:03.023Z,77.74
2022-12-23T09:41:39.617Z,77.43
2022-12-23T09:44:29.465Z,77.97
2022-12-23T09:47:02.416Z,77.33
2022-12-23T09:49:30.855Z,77.81
2022-12-23T09:52:03.933Z,77.77
2022-12-23T09:54:46.130Z,77.70
2022-12-23T09:57:23.424Z,77.98
2022-12-23T09:59:57.843Z,78.12
2022-12-23T10:02:53.630Z,78.13
2022-12-23T10:05:35.504Z,78.39
2022-12-23T10:08:13.268Z,78.58
2022-12-23T10:10:53.010Z,78.63
2022-12-23T10:13:36.137Z,78.56
2022-12-23T10:16:09.776Z,78.12
2022-12-23T10:18:48.047Z,78.18
2022-12-23T10:21:22.481Z,78.07
2022-12-23T10:23:54.059Z,78.64
2022-12-23T10:26:36.795Z,78.73
2022-12-23T10:29:19.602Z,79.53
2022-12-23T10:32:11.706Z,80.27
2022-12-23T10:35:01.114Z,79.95
2022-12-23T10:37:49.144Z,81.06
2022-12-23T10:40:31.458Z,81.24
2022-12-23T10:43:15.025Z,80.55
2022-12-23T10:45:52.485Z,81.23
2022-12-23T10:48:42.447Z,80.90
2022-12-23T10:51:23.199Z,80.45
2022-12-23T10:53:55.524Z,80.81
2022-12-23T10:56:25.223Z,81.28
2022-12-23T10:58:57.040Z,81.35
2022-12-23T11:01:27.711Z,81.93
2022-12-23T11:04:16.422Z,82.34
2022-12-23T11:06:55.875Z,81.41
2022-12-23T11:09:48.307Z,80.52
2022-12-23T11:12:22.040Z,79.89
2022-12-23T11:14:51.906Z,80.12
2022-12-23T11:17:29.965Z,79.84
2022-12-23T11:20:10.677Z,79.87
2022-12-23T11:22:55.509Z,79.81
2022-12-23T11:25:33.041Z,79.83
2022-12-23T11:28:11.563Z,80.10
2022-12-23T11:30:50.382Z,79.84
2022-12-23T11:33:27.561Z,79.86
2022-12-23T11:36:14.311Z,80.17
2022-12-23T11:38:53.092Z,80.39
2022-12-23T11:41:29.861Z,80.70
2022-12-23T11:44:06.834Z,80.55
2022-12-23T11:46:35.828Z,81.34
2022-12-23T11:49:11.474Z,82.23
2022-12-23T11:51:41.207Z,83.11
2022-12-23T11:54:17.237Z,83.85
2022-12-23T11:56:51.220Z,83.76
2022-12-23T11:59:38.606Z,83.21
2022-12-23T12:02:24.236Z,82.91
2022-12-23T12:05:18.557Z,82.79
2022-12-23T12:07:49.019Z,82.47
2022-12-23T12:10:28.872Z,82.36
2022-12-23T12:13:02.859Z,82.16
2022-12-23T12:15:37.793Z,82.35
2022-12-23T12:18:09.893Z,81.91
2022-12-23T12:20:43.457Z,81.74
2022-12-23T12:23:15.829Z,81.87
2022-12-23T12:25:47.182Z,81.96
2022-12-23T12:28:31.433Z,82.03
2022-12-23T12:31:03.679Z,81.74
2022-12-23T12:33:42.974Z,82.11
2022-12-23T12:36:41.540Z,81.79
2022-12-23T12:39:21.312Z,82.28
2022-12-23T12:42:00.139Z,81.72
2022-12-23T12:44:43.845Z,81.38
2022-12-23T12:47:56.015Z,81.29
2022-12-23T12:50:31.397Z,81.43
2022-12-23T12:53:06.587Z,82.18
2022-12-23T12:55:42.462Z,82.12
2022-12-23T12:58:21.367Z,82.12
2022-12-23T13:01:04.300Z,82.00
2022-12-23T13:03:42.860Z,82.27
2022-12-23T13:07:00.293Z,82.38
2022-12-23T13:09:42.399Z,81.79
2022-12-23T13:12:14.971Z,81.31
2022-12-23T13:14:55.952Z,81.43
2022-12-23T13:17:36.202Z,81.28
2022-12-23T13:20:22.727Z,80.75
2022-12-23T13:23:14.895Z,81.10
2022-12-23T13:25:58.618Z,81.59
2022-12-23T13:29:00.075Z,81.02
2022-12-23T13:31:44.508Z,81.78
2022-12-23T13:34:24.989Z,81.62
2022-12-23T13:37:29.176Z,81.84
2022-12-23T13:40:06.666Z,81.84
2022-12-23T13:42:40.693Z,81.77
2022-12-23T13:45:16.813Z,81.47
2022-12-23T13:47:51.194Z,81.49
2022-12-23T13:51:00.220Z,81.28
2022-12-23T13:54:02.289Z,81.89
2022-12-23T13:56:59.605Z,82.95
2022-12-23T13:59:41.981Z,82.64
2022-12-23T14:02:35.377Z,82.91
2022-12-23T14:05:09.309Z,83.10
2022-12-23T14:07:45.056Z,82.34
2022-12-23T14:10:23.218Z,82.42
2022-12-23T14:12:57.750Z,82.21
2022-12-23T14:15:45.152Z,82.27
2022-12-23T14:18:28.440Z,82.77
2022-12-23T14:21:41.564Z,83.19
2022-12-23T14:24:24.674Z,83.99
2022-12-23T14:27:05.155Z,84.79
2022-12-23T14:29:48.431Z,85.09
2022-12-23T14:32:22.280Z,84.42
2022-12-23T14:35:06.588Z,83.74
2022-12-23T14:37:36.314Z,84.15
2022-12-23T14:40:39.703Z,85.96
2022-12-23T14:43:23.685Z,86.54
2022-12-23T14:45:59.568Z,88.02
2022-12-23T14:48:34.147Z,87.07
2022-12-23T14:51:22.589Z,86.74
2022-12-23T14:53:59.881Z,88.71
2022-12-23T14:57:03.222Z,88.35
2022-12-23T15:00:00.446Z,88.81
2022-12-23T15:02:37.562Z,88.61
2022-12-23T15:05:07.142Z,88.76
2022-12-23T15:07:36.782Z,88.61
2022-12-23T15:10:26.526Z,88.02
2022-12-23T15:13:03.143Z,88.34
2022-12-23T15:15:31.469Z,88.68
2022-12-23T15:18:06.022Z,88.11
2022-12-23T15:20:35.455Z,88.59
2022-12-23T15:23:35.943Z,87.99
2022-12-23T15:26:04.825Z,88.39
2022-12-23T15:28:41.384Z,89.34
2022-12-23T15:31:43.360Z,88.96
2022-12-23T15:34:26.395Z,89.33
2022-12-23T15:36:55.519Z,89.43
2022-12-23T15:39:35.951Z,89.30
2022-12-23T15:42:05.357Z,90.18
2022-12-23T15:44:39.736Z,90.45
2022-12-23T15:47:30.272Z,90.97
2022-12-23T15:49:59.906Z,92.11
2022-12-23T15:52:30.673Z,91.43
2022-12-23T15:55:11.296Z,89.94
2022-12-23T15:57:49.955Z,91.38
2022-12-23T16:00:29.065Z,92.64
2022-12-23T16:03:01.083Z,91.80
2022-12-23T16:05:33.059Z,91.10
2022-12-23T16:08:13.542Z,91.09
2022-12-23T16:10:44.510Z,92.03
2022-12-23T16:13:20.630Z,90.99
2022-12-23T16:15:48.992Z,90.73
2022-12-23T16:18:22.425Z,90.20
2022-12-23T16:21:15.034Z,90.95
2022-12-23T16:23:52.468Z,91.47
2022-12-23T16:26:25.350Z,91.74
2022-12-23T16:28:59.472Z,91.58
2022-12-23T16:31:29.386Z,90.62
2022-12-23T16:33:58.995Z,89.30
2022-12-23T16:36:27.205Z,91.15
2022-12-23T16:39:00.788Z,91.37
2022-12-23T16:41:29.156Z,90.73
2022-12-23T16:43:58.209Z,90.14
2022-12-23T16:46:27.185Z,90.38
2022-12-23T16:49:01.298Z,91.05
2022-12-23T16:51:34.273Z,92.23
2022-12-23T16:54:02.664Z,91.87
2022-12-23T16:56:37.458Z,90.17
2022-12-23T16:59:06.355Z,89.78
2022-12-23T17:01:40.127Z,89.99
2022-12-23T17:04:08.955Z,90.58
2022-12-23T17:06:37.956Z,89.54
2022-12-23T17:09:09.236Z,89.43
2022-12-23T17:11:47.607Z,89.89
2022-12-23T17:14:19.605Z,91.12
2022-12-23T17:16:48.740Z,91.31
2022-12-23T17:19:23.392Z,91.56
2022-12-23T17:22:02.061Z,91.27
2022-12-23T17:24:30.306Z,91.23
2022-12-23T17:26:59.015Z,92.25
2022-12-23T17:29:27.298Z,91.66
2022-12-23T17:31:55.676Z,92.31
2022-12-23T17:34:25.263Z,92.07
2022-12-23T17:36:53.640Z,92.35
2022-12-23T17:39:22.627Z,91.88
2022-12-23T17:41:51.318Z,91.16
2022-12-23T17:44:20.535Z,91.57
2022-12-23T17:46:48.811Z,91.84
2022-12-23T17:49:17.079Z,93.13
2022-12-23T17:51:45.351Z,93.22
2022-12-23T17:54:23.172Z,93.48
2022-12-23T17:56:52.174Z,95.03
2022-12-23T17:59:21.945Z,94.31
2022-12-23T18:01:50.497Z,93.62
2022-12-23T18:04:18.870Z,94.74
2022-12-23T18:06:47.242Z,94.20
2022-12-23T18:09:16.937Z,92.68
2022-12-23T18:11:47.802Z,91.52
2022-12-23T18:14:20.449Z,91.38
2022-12-23T18:16:49.332Z,91.65
2022-12-23T18:19:21.443Z,91.91
2022-12-23T18:21:50.635Z,91.92
2022-12-23T18:24:19.014Z,91.78
2022-12-23T18:26:47.853Z,92.45
2022-12-23T18:29:16.056Z,92.49
2022-12-23T18:31:51.481Z,92.38
2022-12-23T18:34:21.097Z,91.91
2022-12-23T18:36:52.105Z,93.33
2022-12-23T18:39:21.256Z,94.17
2022-12-23T18:41:49.573Z,93.38
2022-12-23T18:44:20.787Z,92.54
2022-12-23T18:46:50.364Z,92.41
2022-12-23T18:49:19.372Z,93.91
2022-12-23T18:51:47.767Z,94.05
2022-12-23T18:54:17.169Z,92.87
2022-12-23T18:56:45.678Z,92.95
2022-12-23T18:59:27.429Z,92.63
2022-12-23T19:01:59.462Z,93.48
2022-12-23T19:04:27.709Z,94.07
2022-12-23T19:06:56.968Z,95.70
2022-12-23T19:09:25.895Z,95.01
2022-12-23T19:11:54.879Z,97.27
2022-12-23T19:14:23.499Z,95.96
2022-12-23T19:16:55.731Z,93.23
2022-12-23T19:19:24.210Z,93.16
2022-12-23T19:21:53.150Z,93.81
2022-12-23T19:24:21.274Z,93.19
2022-12-23T19:26:49.981Z,94.12
2022-12-23T19:29:20.630Z,94.75
2022-12-23T19:31:48.714Z,93.55
2022-12-23T19:34:17.152Z,93.22
2022-12-23T19:36:45.577Z,93.52
2022-12-23T19:39:16.822Z,95.25
2022-12-23T19:41:46.095Z,94.79
2022-12-23T19:44:15.019Z,95.25
2022-12-23T19:46:43.481Z,95.44
2022-12-23T19:49:17.743Z,94.56
2022-12-23T19:51:48.734Z,96.86
2022-12-23T19:54:18.866Z,96.75
2022-12-23T19:56:51.532Z,95.52
2022-12-23T19:59:20.869Z,94.51
2022-12-23T20:01:49.479Z,94.15
2022-12-23T20:04:17.763Z,92.83
2022-12-23T20:06:46.401Z,92.58
2022-12-23T20:09:14.654Z,93.13
2022-12-23T20:11:46.290Z,92.46
2022-12-23T20:14:17.685Z,93.12
2022-12-23T20:16:46.048Z,92.78
2022-12-23T20:19:14.837Z,92.73
2022-12-23T20:21:45.591Z,92.55
2022-12-23T20:24:15.196Z,93.52
2022-12-23T20:26:43.562Z,93.42
2022-12-23T20:29:12.470Z,96.65
2022-12-23T20:31:41.208Z,95.50
2022-12-23T20:34:16.553Z,95.32
2022-12-23T20:36:45.030Z,95.33
2022-12-23T20:39:14.234Z,96.02
2022-12-23T20:41:42.750Z,95.43
2022-12-23T20:46:59.241Z,94.50
2022-12-23T20:49:28.167Z,95.54
2022-12-23T20:51:56.446Z,95.67
2022-12-23T20:54:30.001Z,95.07
2022-12-23T20:57:02.498Z,94.17
2022-12-23T20:59:30.807Z,93.85
2022-12-23T21:01:59.561Z,93.85
2022-12-23T21:04:28.281Z,93.93
2022-12-23T21:06:56.562Z,92.65
2022-12-23T21:09:24.655Z,92.55
2022-12-23T21:11:53.021Z,93.57
2022-12-23T21:14:23.189Z,93.37
2022-12-23T21:16:51.702Z,93.19
2022-12-23T21:19:22.671Z,93.21
2022-12-23T21:21:52.390Z,92.29
2022-12-23T21:24:21.196Z,93.77
2022-12-23T21:26:56.004Z,93.74
2022-12-23T21:29:26.262Z,95.10
2022-12-23T21:31:55.880Z,96.53
2022-12-23T21:34:24.618Z,95.40
2022-12-23T21:36:53.158Z,95.25
2022-12-23T21:39:21.513Z,94.73
2022-12-23T21:41:51.706Z,93.34
2022-12-23T21:44:20.389Z,95.82
2022-12-23T21:46:51.152Z,94.69
2022-12-23T21:49:20.555Z,94.10
2022-12-23T21:51:49.096Z,93.36
2022-12-23T21:54:17.602Z,94.48
2022-12-23T21:56:45.779Z,94.68
2022-12-23T21:59:15.039Z,96.05
2022-12-23T22:01:44.045Z,94.38
2022-12-23T22:04:13.275Z,94.11
2022-12-23T22:06:44.410Z,95.26
2022-12-23T22:09:17.796Z,95.69
2022-12-23T22:11:47.993Z,95.29
2022-12-23T22:14:19.237Z,94.31
2022-12-23T22:16:47.665Z,93.70
2022-12-23T22:19:16.566Z,94.14
2022-12-23T22:21:44.719Z,93.32
2022-12-23T22:24:13.226Z,93.55
2022-12-23T22:26:42.132Z,94.15
2022-12-23T22:29:11.625Z,93.60
2022-12-23T22:31:45.066Z,93.67
2022-12-23T22:34:16.833Z,94.67
2022-12-23T22:36:45.837Z,93.56
2022-12-23T22:39:20.122Z,93.64
2022-12-23T22:41:53.116Z,94.30
2022-12-23T22:44:22.071Z,93.58
2022-12-23T22:46:50.538Z,93.81
2022-12-23T22:49:19.040Z,93.91
2022-12-23T22:51:47.527Z,94.34
2022-12-23T22:54:15.670Z,94.18
2022-12-23T22:56:46.136Z,93.30
2022-12-23T22:59:23.734Z,94.25
2022-12-23T23:01:53.559Z,96.10
2022-12-23T23:04:21.840Z,95.20
2022-12-23T23:06:50.617Z,95.65
2022-12-23T23:09:21.077Z,98.47
2022-12-23T23:11:50.373Z,97.35
2022-12-23T23:14:20.041Z,97.25
2022-12-23T23:16:48.712Z,96.32
2022-12-23T23:19:20.738Z,97.00
2022-12-23T23:21:49.316Z,96.15
2022-12-23T23:24:17.825Z,96.71
2022-12-23T23:26:46.150Z,96.61
2022-12-23T23:29:14.841Z,94.48
2022-12-23T23:31:44.185Z,94.50
2022-12-23T23:34:13.448Z,96.89
2022-12-23T23:36:42.120Z,96.92
2022-12-23T23:39:14.238Z,95.71
2022-12-23T23:41:43.004Z,95.85
2022-12-23T23:44:12.493Z,95.92
2022-12-23T23:46:41.095Z,98.00
2022-12-23T23:49:09.762Z,99.14
2022-12-23T23:51:38.693Z,97.30
2022-12-23T23:54:08.783Z,96.85
2022-12-23T23:56:39.243Z,97.71
2022-12-23T23:59:09.156Z,98.68
